createdAt,value
2023-02-23T00:02:29.387Z,4.58
2023-02-23T00:05:38.173Z,4.57
2023-02-23T00:08:41.027Z,4.51
2023-02-23T00:11:43.954Z,4.48
2023-02-23T00:14:46.494Z,4.46
2023-02-23T00:17:49.279Z,4.43
2023-02-23T00:20:57.742Z,4.40
2023-02-23T00:24:06.398Z,4.35
2023-02-23T00:27:08.902Z,4.41
2023-02-23T00:30:16.178Z,4.44
2023-02-23T00:33:18.737Z,4.37
2023-02-23T00:36:24.467Z,4.40
2023-02-23T00:39:29.366Z,4.38
2023-02-23T00:42:32.407Z,4.37
2023-02-23T00:45:37.126Z,4.33
2023-02-23T00:48:40.105Z,4.33
2023-02-23T00:51:42.693Z,4.29
2023-02-23T00:54:45.706Z,4.29
2023-02-23T00:57:49.872Z,4.30
2023-02-23T01:00:54.004Z,4.27
2023-02-23T01:03:57.025Z,4.21
2023-02-23T01:06:59.881Z,4.25
2023-02-23T01:10:18.980Z,4.20
2023-02-23T01:13:24.194Z,4.20
2023-02-23T01:16:29.647Z,4.15
2023-02-23T01:19:34.266Z,4.12
2023-02-23T01:22:38.940Z,4.08
2023-02-23T01:25:43.618Z,4.03
2023-02-23T01:29:10.029Z,4.04
2023-02-23T01:32:13.092Z,3.97
2023-02-23T01:35:16.659Z,3.92
2023-02-23T01:38:19.572Z,3.98
2023-02-23T01:41:27.143Z,3.93
2023-02-23T01:44:31.167Z,3.94
2023-02-23T01:47:35.252Z,3.97
2023-02-23T01:50:53.385Z,4.16
2023-02-23T01:54:10.603Z,4.11
2023-02-23T01:57:14.646Z,4.10
2023-02-23T02:00:20.161Z,4.13
2023-02-23T02:03:34.626Z,4.14
2023-02-23T02:06:37.841Z,4.17
2023-02-23T02:10:01.532Z,4.21
2023-02-23T02:13:06.090Z,4.27
2023-02-23T02:16:35.135Z,4.22
2023-02-23T02:20:26.517Z,4.38
2023-02-23T02:23:54.148Z,4.44
2023-02-23T02:27:10.585Z,4.53
2023-02-23T02:30:23.125Z,4.61
2023-02-23T02:33:47.256Z,4.67
2023-02-23T02:36:49.994Z,4.76
2023-02-23T02:39:55.198Z,4.80
2023-02-23T02:43:21.317Z,4.78
2023-02-23T02:46:28.922Z,4.79
2023-02-23T02:49:40.569Z,4.85
2023-02-23T02:52:50.021Z,4.85
2023-02-23T02:55:56.147Z,4.93
2023-02-23T02:58:59.940Z,4.99
2023-02-23T03:02:23.690Z,5.07
2023-02-23T03:05:50.452Z,5.19
2023-02-23T03:09:24.690Z,5.22
2023-02-23T03:13:00.060Z,5.22
2023-02-23T03:17:03.731Z,5.26
2023-02-23T03:20:50.881Z,5.23
2023-02-23T03:24:19.798Z,5.25
2023-02-23T03:27:47.559Z,5.26
2023-02-23T03:31:29.101Z,5.26
2023-02-23T03:35:04.931Z,5.25
2023-02-23T03:38:50.803Z,5.23
2023-02-23T03:42:14.845Z,5.20
2023-02-23T03:45:38.805Z,5.18
2023-02-23T03:49:02.665Z,5.15
2023-02-23T03:52:37.856Z,5.13
2023-02-23T03:56:02.769Z,5.12
2023-02-23T03:59:24.896Z,5.12
2023-02-23T04:02:46.589Z,5.09
2023-02-23T04:06:09.689Z,5.08
2023-02-23T04:09:31.612Z,5.00
2023-02-23T04:12:57.242Z,4.98
2023-02-23T04:16:10.026Z,4.95
2023-02-23T04:19:13.193Z,4.92
2023-02-23T04:22:15.748Z,4.92
2023-02-23T04:25:22.928Z,4.88
2023-02-23T04:28:27.091Z,4.88
2023-02-23T04:31:29.993Z,4.90
2023-02-23T04:34:32.650Z,4.88
2023-02-23T04:37:35.619Z,4.87
2023-02-23T04:40:38.517Z,4.78
2023-02-23T04:43:41.383Z,4.83
2023-02-23T04:46:43.948Z,4.79
2023-02-23T04:49:47.029Z,4.82
2023-02-23T04:52:50.370Z,4.79
2023-02-23T04:55:53.232Z,4.77
2023-02-23T04:58:55.784Z,4.76
2023-02-23T05:01:59.626Z,4.81
2023-02-23T05:05:02.270Z,4.80
2023-02-23T05:08:05.409Z,4.87
2023-02-23T05:11:08.033Z,4.93
2023-02-23T05:14:12.566Z,4.98
2023-02-23T05:17:15.207Z,5.06
2023-02-23T05:20:18.122Z,5.11
2023-02-23T05:23:22.944Z,5.13
2023-02-23T05:26:25.877Z,5.14
2023-02-23T05:29:28.482Z,5.15
2023-02-23T05:32:31.397Z,5.21
2023-02-23T05:35:33.950Z,5.21
2023-02-23T05:38:36.976Z,5.22
2023-02-23T05:41:39.799Z,5.21
2023-02-23T05:44:42.679Z,5.24
2023-02-23T05:47:45.431Z,5.25
2023-02-23T05:50:48.273Z,5.24
2023-02-23T05:53:51.410Z,5.22
2023-02-23T05:56:54.421Z,5.18
2023-02-23T05:59:57.062Z,5.16
2023-02-23T06:02:59.973Z,5.13
2023-02-23T06:06:02.849Z,5.10
2023-02-23T06:09:05.635Z,5.10
2023-02-23T06:12:09.168Z,5.12
2023-02-23T06:15:11.836Z,5.15
2023-02-23T06:18:14.725Z,5.21
2023-02-23T06:21:17.646Z,5.30
2023-02-23T06:24:21.757Z,5.41
2023-02-23T06:27:24.800Z,5.48
2023-02-23T06:30:27.723Z,5.57
2023-02-23T06:33:30.453Z,5.64
2023-02-23T06:36:33.460Z,5.70
2023-02-23T06:39:36.116Z,5.74
2023-02-23T06:42:38.999Z,5.53
2023-02-23T06:45:41.890Z,5.76
2023-02-23T06:48:44.993Z,5.83
2023-02-23T06:51:47.857Z,5.87
2023-02-23T06:54:51.302Z,5.92
2023-02-23T06:57:54.500Z,5.95
2023-02-23T07:00:58.685Z,6.01
2023-02-23T07:04:01.523Z,6.09
2023-02-23T07:07:04.901Z,6.22
2023-02-23T07:10:07.953Z,6.33
2023-02-23T07:13:12.893Z,6.60
2023-02-23T07:16:16.422Z,6.81
2023-02-23T07:19:19.467Z,6.81
2023-02-23T07:22:22.740Z,7.43
2023-02-23T07:25:25.742Z,7.67
2023-02-23T07:28:28.947Z,7.79
2023-02-23T07:31:31.944Z,7.90
2023-02-23T07:34:34.644Z,8.58
2023-02-23T07:37:37.637Z,8.83
2023-02-23T07:40:40.212Z,9.19
2023-02-23T07:43:43.183Z,9.35
2023-02-23T07:46:46.603Z,9.55
2023-02-23T07:49:49.542Z,9.79
2023-02-23T07:52:52.600Z,9.96
2023-02-23T07:55:58.975Z,10.09
2023-02-23T07:59:01.921Z,10.23
2023-02-23T08:02:05.262Z,10.43
2023-02-23T08:05:08.219Z,10.92
2023-02-23T08:08:11.942Z,11.44
2023-02-23T08:11:34.838Z,11.78
2023-02-23T08:14:37.480Z,12.19
2023-02-23T08:17:40.764Z,12.56
2023-02-23T08:20:43.466Z,13.16
2023-02-23T08:23:46.548Z,13.80
2023-02-23T08:26:50.461Z,13.57
2023-02-23T08:29:56.520Z,13.25
2023-02-23T08:32:59.435Z,13.11
2023-02-23T08:36:02.899Z,12.50
2023-02-23T08:39:07.493Z,13.09
2023-02-23T08:42:10.441Z,13.28
2023-02-23T08:45:13.445Z,13.15
2023-02-23T08:48:16.470Z,13.68
2023-02-23T08:51:19.484Z,13.47
2023-02-23T08:54:22.647Z,13.03
2023-02-23T08:57:26.371Z,12.99
2023-02-23T09:00:29.952Z,12.65
2023-02-23T09:03:38.265Z,12.44
2023-02-23T09:06:42.169Z,12.41
2023-02-23T09:09:44.840Z,12.23
2023-02-23T09:12:48.149Z,12.11
2023-02-23T09:15:50.836Z,11.61
2023-02-23T09:18:53.891Z,11.57
2023-02-23T09:21:56.805Z,11.55
2023-02-23T09:24:59.806Z,11.44
2023-02-23T09:28:02.404Z,11.22
2023-02-23T09:31:18.260Z,11.20
2023-02-23T09:34:21.344Z,11.16
2023-02-23T09:37:25.213Z,11.01
2023-02-23T09:40:32.040Z,11.07
2023-02-23T09:43:50.387Z,10.97
2023-02-23T09:47:25.519Z,10.95
2023-02-23T09:50:30.199Z,11.12
2023-02-23T09:53:38.844Z,10.83
2023-02-23T09:56:48.905Z,10.86
2023-02-23T09:59:51.551Z,10.81
2023-02-23T10:02:54.548Z,10.77
2023-02-23T10:06:06.536Z,10.70
2023-02-23T10:09:21.497Z,10.62
2023-02-23T10:12:39.633Z,10.66
2023-02-23T10:16:12.515Z,10.88
2023-02-23T10:19:37.243Z,10.83
2023-02-23T10:22:40.919Z,10.64
2023-02-23T10:25:47.886Z,10.65
2023-02-23T10:28:52.022Z,10.71
2023-02-23T10:31:58.542Z,10.73
2023-02-23T10:35:01.951Z,11.04
2023-02-23T10:38:05.375Z,10.98
2023-02-23T10:41:09.396Z,11.10
2023-02-23T10:44:22.569Z,11.50
2023-02-23T10:47:28.536Z,11.73
2023-02-23T10:50:32.363Z,12.05
2023-02-23T10:53:36.658Z,12.30
2023-02-23T10:56:44.939Z,12.71
2023-02-23T11:00:12.723Z,12.40
2023-02-23T11:03:50.005Z,12.15
2023-02-23T11:07:06.535Z,11.99
2023-02-23T11:10:27.805Z,12.53
2023-02-23T11:13:39.340Z,12.80
2023-02-23T11:16:42.190Z,12.40
2023-02-23T11:19:46.432Z,13.05
2023-02-23T11:22:49.416Z,13.18
2023-02-23T11:25:55.690Z,12.85
2023-02-23T11:29:05.819Z,12.72
2023-02-23T11:32:14.733Z,13.45
2023-02-23T11:35:20.512Z,13.46
2023-02-23T11:38:28.141Z,13.40
2023-02-23T11:41:35.504Z,13.18
2023-02-23T11:44:38.035Z,13.12
2023-02-23T11:47:42.233Z,12.92
2023-02-23T11:50:47.539Z,12.79
2023-02-23T11:53:50.541Z,12.59
2023-02-23T11:56:55.345Z,12.49
2023-02-23T12:00:00.073Z,12.30
2023-02-23T12:03:03.241Z,12.29
2023-02-23T12:06:06.694Z,12.45
2023-02-23T12:09:18.574Z,12.39
2023-02-23T12:12:23.598Z,12.39
2023-02-23T12:15:40.904Z,12.38
2023-02-23T12:18:55.078Z,12.25
2023-02-23T12:22:08.028Z,12.08
2023-02-23T12:25:49.217Z,11.96
2023-02-23T12:28:58.804Z,12.19
2023-02-23T12:32:08.451Z,12.24
2023-02-23T12:35:17.964Z,12.09
2023-02-23T12:38:39.040Z,11.88
2023-02-23T12:41:41.671Z,11.87
2023-02-23T12:44:45.064Z,11.76
2023-02-23T12:47:56.602Z,11.77
2023-02-23T12:51:02.181Z,11.86
2023-02-23T12:54:05.975Z,11.81
2023-02-23T12:57:34.973Z,11.87
2023-02-23T13:00:55.795Z,11.91
2023-02-23T13:04:11.022Z,11.85
2023-02-23T13:07:34.869Z,11.85
2023-02-23T13:11:18.610Z,11.94
2023-02-23T13:14:58.661Z,11.84
2023-02-23T13:18:09.628Z,11.84
2023-02-23T13:21:35.354Z,11.83
2023-02-23T13:24:40.853Z,11.83
2023-02-23T13:27:50.667Z,11.73
2023-02-23T13:30:54.246Z,11.73
2023-02-23T13:33:58.712Z,11.77
2023-02-23T13:37:05.637Z,11.75
2023-02-23T13:40:36.878Z,11.77
2023-02-23T13:43:49.335Z,11.78
2023-02-23T13:47:14.975Z,11.81
2023-02-23T13:50:26.922Z,11.88
2023-02-23T13:53:59.834Z,11.91
2023-02-23T13:57:16.853Z,11.93
2023-02-23T14:00:20.449Z,11.77
2023-02-23T14:03:29.313Z,11.90
2023-02-23T14:06:33.666Z,11.85
2023-02-23T14:09:37.479Z,11.86
2023-02-23T14:12:43.190Z,11.87
2023-02-23T14:15:53.846Z,11.90
2023-02-23T14:19:15.768Z,11.92
2023-02-23T14:22:22.207Z,11.88
2023-02-23T14:25:34.531Z,11.88
2023-02-23T14:28:46.070Z,11.78
2023-02-23T14:32:10.575Z,11.76
2023-02-23T14:35:32.533Z,11.65
2023-02-23T14:38:47.811Z,11.64
2023-02-23T14:41:56.068Z,11.44
2023-02-23T14:45:16.785Z,11.54
2023-02-23T14:48:19.870Z,11.15
2023-02-23T14:51:26.251Z,11.29
2023-02-23T14:54:36.219Z,11.20
2023-02-23T14:57:42.015Z,11.11
2023-02-23T15:00:46.067Z,11.08
2023-02-23T15:04:07.457Z,11.11
2023-02-23T15:07:18.841Z,11.07
2023-02-23T15:10:29.978Z,11.03
2023-02-23T15:16:40.078Z,11.05
2023-02-23T15:19:43.798Z,11.06
2023-02-23T15:22:48.211Z,11.04
2023-02-23T15:25:52.881Z,11.00
2023-02-23T15:28:57.067Z,11.01
2023-02-23T15:32:21.617Z,10.98
2023-02-23T15:35:24.708Z,10.94
2023-02-23T15:38:43.782Z,10.88
2023-02-23T15:41:48.791Z,10.88
2023-02-23T15:45:01.041Z,10.88
2023-02-23T15:48:07.778Z,10.81
2023-02-23T15:51:22.791Z,10.78
2023-02-23T15:54:47.438Z,10.74
2023-02-23T15:57:56.553Z,10.73
2023-02-23T16:01:06.173Z,10.72
2023-02-23T16:04:19.274Z,10.72
2023-02-23T16:07:24.693Z,10.67
2023-02-23T16:10:28.977Z,10.64
2023-02-23T16:13:31.878Z,10.61
2023-02-23T16:16:35.550Z,10.55
2023-02-23T16:19:41.417Z,10.51
2023-02-23T16:22:53.621Z,10.46
2023-02-23T16:26:10.832Z,10.40
2023-02-23T16:29:19.567Z,10.33
2023-02-23T16:32:25.394Z,10.28
2023-02-23T16:35:37.825Z,10.25
2023-02-23T16:38:49.256Z,10.19
2023-02-23T16:41:52.381Z,10.12
2023-02-23T16:44:55.068Z,10.09
2023-02-23T16:48:02.597Z,10.09
2023-02-23T16:51:12.309Z,10.12
2023-02-23T16:54:15.226Z,10.11
2023-02-23T16:57:29.308Z,10.06
2023-02-23T17:00:33.421Z,10.10
2023-02-23T17:03:43.809Z,10.14
2023-02-23T17:06:55.720Z,10.15
2023-02-23T17:09:59.079Z,10.16
2023-02-23T17:13:08.812Z,10.15
2023-02-23T17:16:12.748Z,10.14
2023-02-23T17:19:18.799Z,10.15
2023-02-23T17:22:21.700Z,10.17
2023-02-23T17:25:26.646Z,10.15
2023-02-23T17:28:29.208Z,10.17
2023-02-23T17:31:32.441Z,10.13
2023-02-23T17:34:35.858Z,10.10
2023-02-23T17:37:39.596Z,10.07
2023-02-23T17:40:42.285Z,10.02
2023-02-23T17:43:45.832Z,9.98
2023-02-23T17:46:48.616Z,9.94
2023-02-23T17:49:51.792Z,9.93
2023-02-23T17:52:55.276Z,9.90
2023-02-23T17:55:58.591Z,9.96
2023-02-23T17:59:01.863Z,9.95
2023-02-23T18:02:06.827Z,9.96
2023-02-23T18:05:12.276Z,9.95
2023-02-23T18:08:19.918Z,9.99
2023-02-23T18:11:23.753Z,10.00
2023-02-23T18:14:27.008Z,10.02
2023-02-23T18:17:33.865Z,10.01
2023-02-23T18:20:36.782Z,10.01
2023-02-23T18:23:40.225Z,9.95
2023-02-23T18:26:43.055Z,9.88
2023-02-23T18:29:46.115Z,9.88
2023-02-23T18:32:49.110Z,9.82
2023-02-23T18:35:52.757Z,9.80
2023-02-23T18:38:59.224Z,9.74
2023-02-23T18:42:04.429Z,9.74
2023-02-23T18:45:08.857Z,9.71
2023-02-23T18:48:13.683Z,9.68
2023-02-23T18:51:16.658Z,9.67
2023-02-23T18:54:19.688Z,9.61
2023-02-23T18:57:23.628Z,9.58
2023-02-23T19:00:27.976Z,9.60
2023-02-23T19:03:30.836Z,9.58
2023-02-23T19:06:39.058Z,9.51
2023-02-23T19:09:43.787Z,9.48
2023-02-23T19:12:46.901Z,9.44
2023-02-23T19:15:53.638Z,9.42
2023-02-23T19:18:57.909Z,9.42
2023-02-23T19:22:01.766Z,9.40
2023-02-23T19:25:05.381Z,9.36
2023-02-23T19:28:09.461Z,9.31
2023-02-23T19:31:15.960Z,9.29
2023-02-23T19:34:18.766Z,9.24
2023-02-23T19:37:21.962Z,9.24
2023-02-23T19:40:28.545Z,9.23
2023-02-23T19:43:31.770Z,9.21
2023-02-23T19:46:35.196Z,9.20
2023-02-23T19:49:38.343Z,9.16
2023-02-23T19:52:41.100Z,9.07
2023-02-23T19:55:45.353Z,9.02
2023-02-23T19:58:49.389Z,9.04
2023-02-23T20:01:53.043Z,8.99
2023-02-23T20:04:56.257Z,8.96
2023-02-23T20:07:59.397Z,8.92
2023-02-23T20:11:05.592Z,8.84
2023-02-23T20:14:08.825Z,8.84
2023-02-23T20:17:13.672Z,8.78
2023-02-23T20:20:16.674Z,8.79
2023-02-23T20:23:19.879Z,8.75
2023-02-23T20:26:26.584Z,8.75
2023-02-23T20:29:30.587Z,8.73
2023-02-23T20:32:33.661Z,8.75
2023-02-23T20:35:36.805Z,8.71
2023-02-23T20:38:39.886Z,8.70
2023-02-23T20:41:44.176Z,8.65
2023-02-23T20:44:46.885Z,8.65
2023-02-23T20:47:53.651Z,8.67
2023-02-23T20:50:57.227Z,8.64
2023-02-23T20:54:00.488Z,8.59
2023-02-23T20:57:07.681Z,8.59
2023-02-23T21:00:12.012Z,8.58
2023-02-23T21:03:15.812Z,8.55
2023-02-23T21:06:20.101Z,8.53
2023-02-23T21:09:23.001Z,8.48
2023-02-23T21:12:26.208Z,8.45
2023-02-23T21:15:29.628Z,8.43
2023-02-23T21:18:32.806Z,8.40
2023-02-23T21:21:47.214Z,8.39
2023-02-23T21:24:50.285Z,8.34
2023-02-23T21:27:54.215Z,8.33
2023-02-23T21:30:57.194Z,8.31
2023-02-23T21:34:00.096Z,8.27
2023-02-23T21:37:03.195Z,8.22
2023-02-23T21:40:13.100Z,8.19
2023-02-23T21:43:16.070Z,8.10
2023-02-23T21:46:20.652Z,8.12
2023-02-23T21:49:23.566Z,8.07
2023-02-23T21:52:26.127Z,8.04
2023-02-23T21:55:28.991Z,8.05
2023-02-23T21:58:31.622Z,8.00
2023-02-23T22:01:36.928Z,7.98
2023-02-23T22:04:40.412Z,7.98
2023-02-23T22:07:48.296Z,7.90
2023-02-23T22:10:51.120Z,7.85
2023-02-23T22:13:59.499Z,7.80
2023-02-23T22:17:03.973Z,7.80
2023-02-23T22:20:10.206Z,7.77
2023-02-23T22:23:14.013Z,7.80
2023-02-23T22:26:17.856Z,7.83
2023-02-23T22:29:22.609Z,7.88
2023-02-23T22:32:27.281Z,7.87
2023-02-23T22:35:30.275Z,7.85
2023-02-23T22:38:36.758Z,7.84
2023-02-23T22:41:42.466Z,7.79
2023-02-23T22:44:45.041Z,7.81
2023-02-23T22:47:47.907Z,7.80
2023-02-23T22:50:51.411Z,7.80
2023-02-23T22:53:54.434Z,7.77
2023-02-23T22:56:57.065Z,7.74
2023-02-23T23:00:07.219Z,7.73
2023-02-23T23:03:09.852Z,7.71
2023-02-23T23:06:16.581Z,7.73
2023-02-23T23:09:21.231Z,7.70
2023-02-23T23:12:28.722Z,7.69
2023-02-23T23:15:32.049Z,7.67
2023-02-23T23:18:36.096Z,7.66
2023-02-23T23:21:40.430Z,7.66
2023-02-23T23:24:46.345Z,7.62
2023-02-23T23:27:53.897Z,7.63
2023-02-23T23:30:56.869Z,7.62
2023-02-23T23:34:01.344Z,7.62
2023-02-23T23:37:04.373Z,7.60
2023-02-23T23:40:14.527Z,7.63
2023-02-23T23:43:20.419Z,7.60
2023-02-23T23:46:32.066Z,7.60
2023-02-23T23:49:40.199Z,7.59
2023-02-23T23:52:44.887Z,7.56
2023-02-23T23:55:47.704Z,7.52
2023-02-23T23:58:51.420Z,7.49
